createdAt,value
2019-01-14T00:02:16.976Z,2.38
2019-01-14T00:04:46.525Z,2.41
2019-01-14T00:07:16.571Z,2.45
2019-01-14T00:09:46.465Z,2.26
2019-01-14T00:12:16.216Z,2.30
2019-01-14T00:14:46.165Z,2.36
2019-01-14T00:17:16.123Z,2.42
2019-01-14T00:19:45.910Z,2.42
2019-01-14T00:22:15.677Z,2.48
2019-01-14T00:24:48.277Z,2.47
2019-01-14T00:27:19.665Z,2.46
2019-01-14T00:29:49.203Z,2.46
2019-01-14T00:32:18.868Z,2.42
2019-01-14T00:34:48.524Z,2.37
2019-01-14T00:37:18.160Z,2.51
2019-01-14T00:39:47.786Z,2.49
2019-01-14T00:42:17.701Z,2.48
2019-01-14T00:44:47.310Z,2.57
2019-01-14T00:47:16.887Z,2.60
2019-01-14T00:49:46.637Z,2.74
2019-01-14T00:52:16.594Z,2.70
2019-01-14T00:54:46.360Z,2.67
2019-01-14T00:57:16.311Z,2.50
2019-01-14T00:59:46.183Z,2.58
2019-01-14T01:02:16.249Z,2.61
2019-01-14T01:04:46.133Z,2.60
2019-01-14T01:07:15.986Z,2.70
2019-01-14T01:09:45.638Z,2.74
2019-01-14T01:12:15.378Z,2.75
2019-01-14T01:14:45.260Z,2.78
2019-01-14T01:17:15.130Z,2.57
2019-01-14T01:19:44.977Z,2.55
2019-01-14T01:22:15.151Z,2.49
2019-01-14T01:24:44.911Z,2.63
2019-01-14T01:27:14.864Z,2.61
2019-01-14T01:29:44.382Z,1.69
2019-01-14T01:32:14.098Z,2.70
2019-01-14T01:34:46.318Z,2.71
2019-01-14T01:37:16.054Z,2.75
2019-01-14T01:39:46.021Z,2.71
2019-01-14T01:42:15.651Z,2.72
2019-01-14T01:44:45.400Z,2.75
2019-01-14T01:47:15.300Z,2.83
2019-01-14T01:49:45.189Z,2.72
2019-01-14T01:52:14.950Z,2.79
2019-01-14T01:54:44.609Z,2.78
2019-01-14T01:57:15.062Z,2.83
2019-01-14T01:59:44.807Z,2.83
2019-01-14T02:02:14.677Z,2.80
2019-01-14T02:04:44.470Z,2.81
2019-01-14T02:07:14.368Z,2.84
2019-01-14T02:09:44.301Z,2.72
2019-01-14T02:12:14.181Z,2.71
2019-01-14T02:14:44.128Z,2.68
2019-01-14T02:17:14.048Z,2.63
2019-01-14T02:19:43.755Z,2.56
2019-01-14T02:22:13.448Z,2.58
2019-01-14T02:24:43.047Z,2.53
2019-01-14T02:27:13.054Z,2.60
2019-01-14T02:29:42.797Z,2.67
2019-01-14T02:32:12.406Z,2.60
2019-01-14T02:34:42.311Z,2.53
2019-01-14T02:37:11.844Z,2.53
2019-01-14T02:39:41.404Z,2.50
2019-01-14T02:42:11.199Z,2.42
2019-01-14T02:44:40.857Z,2.35
2019-01-14T02:47:10.421Z,2.28
2019-01-14T02:49:40.008Z,2.32
2019-01-14T02:52:09.614Z,2.30
2019-01-14T02:54:39.202Z,2.29
2019-01-14T02:57:08.958Z,2.32
2019-01-14T02:59:38.499Z,2.25
2019-01-14T03:02:08.147Z,2.26
2019-01-14T03:04:37.822Z,2.29
2019-01-14T03:07:07.514Z,2.25
2019-01-14T03:09:37.020Z,2.25
2019-01-14T03:12:06.811Z,2.23
2019-01-14T03:14:36.396Z,2.14
2019-01-14T03:17:06.104Z,2.20
2019-01-14T03:19:35.864Z,2.16
2019-01-14T03:22:05.511Z,2.17
2019-01-14T03:24:35.044Z,2.24
2019-01-14T03:27:04.731Z,2.17
2019-01-14T03:29:34.264Z,2.10
2019-01-14T03:32:03.806Z,2.09
2019-01-14T03:34:33.808Z,2.11
2019-01-14T03:37:05.634Z,2.07
2019-01-14T03:39:34.679Z,2.04
2019-01-14T03:42:04.752Z,1.93
2019-01-14T03:44:34.457Z,1.99
2019-01-14T03:47:04.122Z,1.97
2019-01-14T03:49:33.804Z,1.95
2019-01-14T03:52:03.529Z,2.06
2019-01-14T03:54:33.230Z,2.06
2019-01-14T03:57:02.996Z,2.10
2019-01-14T03:59:32.654Z,2.10
2019-01-14T04:02:02.293Z,2.01
2019-01-14T04:04:32.216Z,2.02
2019-01-14T04:07:01.654Z,2.00
2019-01-14T04:09:31.274Z,2.01
2019-01-14T04:12:01.173Z,1.85
2019-01-14T04:14:30.729Z,1.87
2019-01-14T04:17:00.291Z,1.85
2019-01-14T04:19:30.087Z,1.75
2019-01-14T04:21:59.729Z,1.85
2019-01-14T04:24:29.351Z,1.83
2019-01-14T04:27:00.785Z,1.96
2019-01-14T04:29:30.434Z,1.79
2019-01-14T04:32:00.136Z,1.74
2019-01-14T04:34:29.894Z,1.68
2019-01-14T04:36:59.424Z,1.68
2019-01-14T04:39:29.273Z,1.57
2019-01-14T04:41:59.152Z,0.65
2019-01-14T04:44:28.717Z,1.70
2019-01-14T04:46:58.259Z,1.62
2019-01-14T04:49:27.926Z,1.65
2019-01-14T04:51:57.520Z,1.57
2019-01-14T04:54:27.290Z,1.57
2019-01-14T04:56:57.173Z,1.51
2019-01-14T04:59:26.807Z,1.44
2019-01-14T05:01:56.329Z,1.51
2019-01-14T05:04:26.205Z,1.46
2019-01-14T05:06:56.200Z,1.47
2019-01-14T05:09:27.278Z,1.49
2019-01-14T05:11:57.097Z,1.48
2019-01-14T05:14:26.744Z,1.56
2019-01-14T05:16:56.489Z,1.49
2019-01-14T05:19:26.315Z,1.51
2019-01-14T05:21:56.182Z,1.56
2019-01-14T05:24:26.020Z,1.56
2019-01-14T05:26:55.780Z,1.63
2019-01-14T05:29:25.627Z,1.42
2019-01-14T05:31:55.467Z,1.50
2019-01-14T05:34:27.334Z,1.51
2019-01-14T05:36:56.975Z,1.47
2019-01-14T05:39:26.565Z,1.45
2019-01-14T05:41:56.457Z,1.39
2019-01-14T05:44:26.206Z,1.41
2019-01-14T05:46:55.999Z,1.43
2019-01-14T05:49:25.954Z,1.33
2019-01-14T05:51:55.496Z,1.40
2019-01-14T05:54:25.136Z,1.43
2019-01-14T05:56:55.040Z,1.45
2019-01-14T05:59:24.946Z,1.47
2019-01-14T06:01:54.701Z,1.37
2019-01-14T06:04:24.434Z,1.30
2019-01-14T06:06:54.234Z,1.27
2019-01-14T06:09:24.091Z,1.23
2019-01-14T06:11:53.823Z,1.23
2019-01-14T06:14:23.745Z,1.39
2019-01-14T06:16:53.904Z,1.35
2019-01-14T06:19:24.669Z,1.46
2019-01-14T06:21:54.505Z,1.52
2019-01-14T06:24:24.183Z,1.42
2019-01-14T06:26:54.009Z,1.42
2019-01-14T06:29:23.907Z,1.45
2019-01-14T06:31:53.460Z,1.37
2019-01-14T06:34:23.431Z,1.29
2019-01-14T06:36:53.120Z,0.87
2019-01-14T06:39:23.441Z,1.31
2019-01-14T06:41:53.285Z,1.27
2019-01-14T06:44:22.859Z,1.36
2019-01-14T06:46:52.687Z,1.38
2019-01-14T06:49:22.622Z,1.37
2019-01-14T06:51:52.254Z,1.27
2019-01-14T06:54:21.794Z,1.20
2019-01-14T06:56:51.622Z,1.31
2019-01-14T06:59:21.177Z,1.30
2019-01-14T07:01:50.684Z,1.37
2019-01-14T07:04:20.426Z,1.30
2019-01-14T07:06:51.914Z,1.23
2019-01-14T07:09:21.760Z,1.27
2019-01-14T07:11:51.880Z,1.25
2019-01-14T07:14:21.596Z,1.27
2019-01-14T07:16:51.419Z,1.34
2019-01-14T07:19:21.146Z,1.15
2019-01-14T07:21:50.706Z,1.16
2019-01-14T07:24:20.479Z,1.22
2019-01-14T07:26:50.217Z,1.27
2019-01-14T07:29:19.728Z,1.27
2019-01-14T07:31:49.586Z,1.26
2019-01-14T07:34:19.311Z,1.36
2019-01-14T07:36:48.838Z,1.39
2019-01-14T07:39:18.599Z,1.34
2019-01-14T07:41:48.256Z,1.28
2019-01-14T07:44:17.867Z,1.26
2019-01-14T07:46:47.602Z,1.37
2019-01-14T07:49:17.126Z,1.39
2019-01-14T07:51:46.695Z,1.39
2019-01-14T07:54:16.709Z,1.31
2019-01-14T07:56:46.704Z,0.40
2019-01-14T07:59:16.436Z,1.39
2019-01-14T08:01:46.516Z,1.38
2019-01-14T08:04:16.325Z,1.44
2019-01-14T08:06:46.169Z,0.52
2019-01-14T08:09:16.149Z,1.50
2019-01-14T08:11:45.915Z,1.56
2019-01-14T08:14:15.602Z,1.44
2019-01-14T08:16:45.449Z,1.55
2019-01-14T08:19:15.266Z,1.42
2019-01-14T08:21:45.021Z,1.43
2019-01-14T08:24:15.019Z,1.42
2019-01-14T08:26:44.917Z,1.46
2019-01-14T08:29:14.764Z,1.48
2019-01-14T08:31:44.578Z,1.56
2019-01-14T08:34:14.210Z,1.53
2019-01-14T08:36:44.000Z,1.53
2019-01-14T08:39:14.068Z,1.61
2019-01-14T08:41:50.085Z,1.58
2019-01-14T08:44:21.190Z,1.56
2019-01-14T08:46:50.862Z,1.59
2019-01-14T08:49:20.796Z,1.60
2019-01-14T08:51:50.512Z,1.60
2019-01-14T08:54:20.006Z,1.68
2019-01-14T08:56:49.854Z,1.66
2019-01-14T08:59:19.536Z,1.74
2019-01-14T09:01:49.132Z,1.74
2019-01-14T09:04:22.513Z,1.92
2019-01-14T09:06:50.156Z,1.96
2019-01-14T09:09:19.800Z,1.86
2019-01-14T09:11:49.404Z,1.86
2019-01-14T09:14:19.033Z,1.85
2019-01-14T09:16:48.591Z,1.88
2019-01-14T09:19:18.316Z,1.88
2019-01-14T09:21:48.062Z,1.86
2019-01-14T09:24:17.696Z,1.86
2019-01-14T09:26:47.267Z,1.87
2019-01-14T09:29:17.009Z,2.00
2019-01-14T09:31:47.011Z,1.90
2019-01-14T09:34:16.762Z,1.94
2019-01-14T09:36:46.499Z,1.98
2019-01-14T09:39:16.293Z,2.01
2019-01-14T09:41:46.099Z,2.05
2019-01-14T09:44:15.896Z,2.12
2019-01-14T09:46:45.552Z,1.23
2019-01-14T09:49:15.405Z,2.12
2019-01-14T09:51:45.221Z,2.16
2019-01-14T09:54:15.003Z,2.13
2019-01-14T09:56:44.823Z,2.18
2019-01-14T09:59:14.915Z,2.33
2019-01-14T10:01:44.734Z,2.21
2019-01-14T10:04:14.351Z,2.30
2019-01-14T10:06:44.277Z,2.35
2019-01-14T10:09:14.109Z,2.30
2019-01-14T10:11:43.848Z,2.33
2019-01-14T10:14:13.642Z,2.39
2019-01-14T10:16:44.041Z,2.39
2019-01-14T10:19:14.167Z,2.47
2019-01-14T10:21:43.991Z,2.55
2019-01-14T10:24:13.878Z,2.54
2019-01-14T10:26:43.776Z,2.55
2019-01-14T10:29:13.496Z,2.69
2019-01-14T10:31:43.142Z,2.73
2019-01-14T10:34:12.993Z,2.71
2019-01-14T10:36:42.823Z,2.74
2019-01-14T10:39:12.371Z,2.61
2019-01-14T10:41:42.046Z,2.56
2019-01-14T10:44:11.834Z,2.50
2019-01-14T10:46:41.336Z,2.68
2019-01-14T10:49:11.131Z,2.63
2019-01-14T10:51:40.792Z,2.69
2019-01-14T10:54:10.337Z,2.80
2019-01-14T10:56:44.143Z,2.88
2019-01-14T10:59:11.495Z,2.90
2019-01-14T11:01:41.413Z,2.94
2019-01-14T11:04:11.335Z,2.97
2019-01-14T11:06:40.943Z,3.04
2019-01-14T11:09:10.908Z,3.07
2019-01-14T11:11:40.395Z,3.09
2019-01-14T11:14:10.095Z,3.16
2019-01-14T11:16:40.016Z,3.15
2019-01-14T11:19:09.585Z,3.14
2019-01-14T11:21:39.148Z,3.08
2019-01-14T11:24:08.911Z,3.02
2019-01-14T11:26:38.586Z,3.03
2019-01-14T11:29:08.498Z,3.01
2019-01-14T11:31:38.262Z,3.05
2019-01-14T11:34:07.927Z,3.02
2019-01-14T11:36:37.559Z,3.09
2019-01-14T11:39:16.676Z,3.16
2019-01-14T11:41:46.478Z,3.18
2019-01-14T11:44:16.113Z,3.27
2019-01-14T11:46:46.321Z,3.37
2019-01-14T11:49:16.038Z,3.32
2019-01-14T11:51:45.644Z,2.42
2019-01-14T11:54:15.533Z,3.33
2019-01-14T11:56:45.425Z,3.42
2019-01-14T11:59:15.170Z,3.33
2019-01-14T12:01:45.082Z,3.33
2019-01-14T12:04:14.799Z,3.31
2019-01-14T12:06:45.033Z,3.32
2019-01-14T12:09:15.195Z,3.26
2019-01-14T12:11:45.024Z,2.28
2019-01-14T12:14:14.737Z,3.22
2019-01-14T12:16:44.514Z,3.30
2019-01-14T12:19:14.205Z,3.23
2019-01-14T12:21:44.003Z,3.22
2019-01-14T12:24:14.072Z,3.19
2019-01-14T12:26:44.103Z,3.21
2019-01-14T12:29:14.081Z,3.20
2019-01-14T12:31:44.101Z,3.26
2019-01-14T12:34:13.917Z,3.27
2019-01-14T12:36:43.523Z,3.27
2019-01-14T12:39:19.282Z,3.25
2019-01-14T12:41:50.932Z,3.32
2019-01-14T12:44:15.946Z,3.31
2019-01-14T12:46:45.518Z,3.29
2019-01-14T12:49:15.376Z,3.27
2019-01-14T12:51:45.144Z,3.33
2019-01-14T12:54:14.787Z,3.33
2019-01-14T12:56:44.808Z,3.36
2019-01-14T12:59:14.621Z,3.35
2019-01-14T13:01:44.298Z,3.31
2019-01-14T13:04:14.017Z,3.28
2019-01-14T13:06:44.153Z,3.31
2019-01-14T13:09:13.839Z,3.31
2019-01-14T13:11:43.538Z,3.43
2019-01-14T13:14:13.160Z,3.42
2019-01-14T13:16:43.017Z,3.43
2019-01-14T13:19:12.935Z,3.46
2019-01-14T13:21:42.743Z,3.47
2019-01-14T13:24:12.298Z,3.40
2019-01-14T13:26:41.982Z,3.50
2019-01-14T13:29:15.235Z,3.47
2019-01-14T13:31:43.150Z,3.49
2019-01-14T13:34:13.083Z,3.56
2019-01-14T13:36:42.878Z,3.60
2019-01-14T13:39:12.926Z,3.52
2019-01-14T13:41:42.726Z,3.54
2019-01-14T13:44:12.488Z,3.61
2019-01-14T13:46:42.262Z,3.59
2019-01-14T13:49:11.978Z,3.57
2019-01-14T13:51:41.521Z,3.55
2019-01-14T13:54:11.446Z,3.57
2019-01-14T13:56:40.954Z,3.62
2019-01-14T13:59:10.556Z,3.60
2019-01-14T14:01:40.487Z,3.61
2019-01-14T14:04:10.122Z,3.61
2019-01-14T14:06:39.737Z,3.62
2019-01-14T14:09:11.008Z,3.57
2019-01-14T14:11:40.651Z,3.59
2019-01-14T14:14:10.325Z,3.66
2019-01-14T14:16:40.027Z,3.67
2019-01-14T14:19:09.675Z,3.66
2019-01-14T14:21:39.281Z,3.62
2019-01-14T14:24:08.883Z,3.65
2019-01-14T14:26:38.600Z,3.68
2019-01-14T14:29:08.171Z,3.61
2019-01-14T14:31:37.980Z,3.65
2019-01-14T14:34:07.752Z,3.67
2019-01-14T14:36:37.532Z,3.61
2019-01-14T14:39:09.877Z,3.65
2019-01-14T14:41:39.477Z,3.66
2019-01-14T14:44:09.056Z,3.64
2019-01-14T14:46:38.931Z,3.70
2019-01-14T14:49:08.574Z,3.67
2019-01-14T14:51:38.223Z,3.68
2019-01-14T14:54:07.891Z,3.59
2019-01-14T14:56:37.554Z,3.64
2019-01-14T14:59:07.244Z,3.60
2019-01-14T15:01:37.220Z,3.56
2019-01-14T15:04:06.854Z,3.60
2019-01-14T15:06:36.520Z,3.62
2019-01-14T15:09:09.160Z,3.61
2019-01-14T15:11:38.681Z,3.61
2019-01-14T15:14:08.333Z,3.57
2019-01-14T15:16:38.065Z,3.59
2019-01-14T15:19:07.586Z,3.60
2019-01-14T15:21:37.236Z,2.68
2019-01-14T15:24:07.146Z,3.58
2019-01-14T15:26:36.817Z,3.60
2019-01-14T15:29:06.578Z,3.68
2019-01-14T15:31:36.865Z,3.67
2019-01-14T15:34:06.872Z,3.72
2019-01-14T15:36:36.548Z,3.69
2019-01-14T15:39:09.831Z,3.68
2019-01-14T15:41:39.594Z,3.72
2019-01-14T15:44:09.170Z,3.71
2019-01-14T15:46:39.098Z,3.68
2019-01-14T15:49:08.780Z,3.74
2019-01-14T15:51:38.680Z,3.81
2019-01-14T15:54:08.431Z,3.80
2019-01-14T15:56:38.203Z,3.85
2019-01-14T15:59:07.950Z,3.82
2019-01-14T16:01:37.836Z,3.88
2019-01-14T16:04:07.487Z,3.93
2019-01-14T16:06:37.138Z,3.96
2019-01-14T16:09:09.557Z,4.06
2019-01-14T16:11:39.255Z,4.05
2019-01-14T16:14:09.015Z,4.01
2019-01-14T16:16:38.967Z,4.03
2019-01-14T16:19:08.568Z,4.05
2019-01-14T16:21:38.198Z,4.07
2019-01-14T16:24:08.119Z,4.05
2019-01-14T16:26:38.548Z,4.07
2019-01-14T16:29:08.265Z,4.09
2019-01-14T16:31:38.334Z,4.14
2019-01-14T16:34:08.128Z,4.14
2019-01-14T16:36:37.704Z,4.10
2019-01-14T16:39:09.208Z,4.04
2019-01-14T16:41:38.842Z,3.99
2019-01-14T16:44:08.396Z,4.07
2019-01-14T16:46:38.223Z,4.06
2019-01-14T16:49:07.940Z,4.01
2019-01-14T16:51:37.676Z,3.98
2019-01-14T16:54:07.432Z,4.04
2019-01-14T16:56:37.040Z,4.02
2019-01-14T16:59:06.761Z,4.04
2019-01-14T17:01:36.686Z,4.00
2019-01-14T17:04:06.479Z,4.01
2019-01-14T17:06:36.291Z,4.03
2019-01-14T17:09:09.149Z,3.96
2019-01-14T17:11:38.821Z,3.96
2019-01-14T17:14:08.528Z,3.98
2019-01-14T17:16:38.382Z,4.01
2019-01-14T17:19:08.267Z,4.04
2019-01-14T17:21:37.848Z,4.06
2019-01-14T17:24:07.612Z,4.07
2019-01-14T17:26:37.253Z,4.08
2019-01-14T17:29:07.003Z,4.01
2019-01-14T17:31:38.265Z,3.99
2019-01-14T17:34:07.941Z,3.98
2019-01-14T17:36:37.575Z,4.02
2019-01-14T17:39:09.418Z,4.01
2019-01-14T17:41:39.831Z,3.97
2019-01-14T17:44:09.419Z,4.01
2019-01-14T17:46:39.175Z,3.97
2019-01-14T17:49:08.914Z,3.97
2019-01-14T17:51:38.623Z,3.97
2019-01-14T17:54:08.300Z,3.98
2019-01-14T17:56:38.057Z,3.99
2019-01-14T17:59:07.653Z,3.99
2019-01-14T18:01:37.551Z,3.94
2019-01-14T18:04:07.211Z,4.00
2019-01-14T18:06:36.807Z,4.05
2019-01-14T18:09:09.052Z,3.99
2019-01-14T18:11:38.732Z,4.04
2019-01-14T18:14:08.334Z,4.02
2019-01-14T18:16:38.277Z,3.98
2019-01-14T18:19:08.072Z,3.94
2019-01-14T18:21:37.619Z,3.96
2019-01-14T18:24:07.555Z,3.96
2019-01-14T18:26:37.250Z,3.96
2019-01-14T18:29:06.899Z,3.88
2019-01-14T18:31:36.745Z,3.94
2019-01-14T18:34:06.391Z,3.97
2019-01-14T18:36:36.039Z,3.94
2019-01-14T18:39:08.397Z,3.94
2019-01-14T18:41:38.174Z,3.97
2019-01-14T18:44:07.969Z,3.96
2019-01-14T18:46:37.769Z,3.92
2019-01-14T18:49:07.428Z,3.97
2019-01-14T18:51:37.086Z,3.96
2019-01-14T18:54:06.903Z,3.98
2019-01-14T18:56:36.558Z,4.00
2019-01-14T18:59:06.272Z,4.03
2019-01-14T19:01:36.101Z,4.05
2019-01-14T19:04:05.879Z,4.04
2019-01-14T19:06:35.568Z,4.02
2019-01-14T19:09:08.429Z,4.04
2019-01-14T19:11:38.266Z,4.04
2019-01-14T19:14:07.883Z,4.00
2019-01-14T19:16:37.662Z,3.94
2019-01-14T19:19:07.365Z,3.90
2019-01-14T19:21:37.136Z,3.91
2019-01-14T19:24:07.025Z,3.91
2019-01-14T19:26:36.702Z,3.87
2019-01-14T19:29:06.322Z,3.85
2019-01-14T19:31:36.336Z,3.86
2019-01-14T19:34:06.079Z,3.86
2019-01-14T19:36:35.737Z,3.83
2019-01-14T19:39:08.773Z,3.84
2019-01-14T19:41:38.602Z,3.77
2019-01-14T19:44:08.214Z,3.75
2019-01-14T19:46:38.000Z,3.72
2019-01-14T19:49:07.791Z,3.70
2019-01-14T19:51:37.369Z,3.74
2019-01-14T19:54:07.316Z,3.75
2019-01-14T19:56:37.030Z,3.80
2019-01-14T19:59:06.656Z,3.78
2019-01-14T20:01:36.424Z,3.83
2019-01-14T20:04:06.225Z,3.77
2019-01-14T20:06:35.986Z,3.77
2019-01-14T20:09:07.358Z,3.78
2019-01-14T20:11:36.898Z,3.68
2019-01-14T20:14:06.602Z,3.67
2019-01-14T20:16:36.417Z,3.64
2019-01-14T20:19:06.085Z,3.58
2019-01-14T20:21:35.772Z,3.63
2019-01-14T20:24:05.734Z,3.63
2019-01-14T20:26:35.340Z,3.55
2019-01-14T20:29:06.318Z,3.56
2019-01-14T20:31:36.068Z,3.47
2019-01-14T20:34:05.693Z,3.43
2019-01-14T20:36:35.569Z,3.49
2019-01-14T20:39:09.272Z,3.52
2019-01-14T20:41:39.096Z,3.48
2019-01-14T20:44:08.802Z,3.46
2019-01-14T20:46:38.427Z,3.41
2019-01-14T20:49:08.273Z,3.45
2019-01-14T20:51:37.990Z,3.45
2019-01-14T20:54:07.789Z,3.44
2019-01-14T20:56:37.529Z,3.43
2019-01-14T20:59:07.247Z,3.39
2019-01-14T21:01:38.064Z,3.44
2019-01-14T21:04:07.759Z,3.44
2019-01-14T21:06:37.541Z,3.41
2019-01-14T21:09:08.351Z,3.40
2019-01-14T21:11:37.926Z,3.38
2019-01-14T21:14:07.592Z,3.43
2019-01-14T21:16:37.389Z,3.46
2019-01-14T21:19:07.050Z,3.40
2019-01-14T21:21:36.851Z,3.36
2019-01-14T21:24:06.697Z,3.36
2019-01-14T21:26:36.259Z,3.33
2019-01-14T21:29:05.948Z,3.31
2019-01-14T21:31:35.627Z,3.28
2019-01-14T21:34:05.277Z,3.37
2019-01-14T21:36:34.805Z,3.28
2019-01-14T21:39:06.436Z,3.23
2019-01-14T21:41:36.011Z,3.31
2019-01-14T21:44:05.647Z,3.26
2019-01-14T21:46:35.383Z,3.23
2019-01-14T21:49:05.040Z,3.20
2019-01-14T21:51:34.698Z,3.19
2019-01-14T21:54:04.762Z,3.23
2019-01-14T21:56:34.650Z,3.22
2019-01-14T21:59:04.300Z,3.23
2019-01-14T22:01:34.143Z,3.20
2019-01-14T22:04:03.973Z,3.19
2019-01-14T22:06:33.655Z,3.29
2019-01-14T22:09:04.008Z,3.20
2019-01-14T22:11:38.653Z,3.19
2019-01-14T22:14:05.423Z,3.15
2019-01-14T22:16:34.988Z,3.13
2019-01-14T22:19:04.526Z,3.15
2019-01-14T22:21:34.321Z,3.16
2019-01-14T22:24:03.888Z,3.16
2019-01-14T22:26:33.399Z,3.07
2019-01-14T22:29:03.470Z,3.10
2019-01-14T22:31:33.108Z,3.17
2019-01-14T22:34:02.702Z,3.15
2019-01-14T22:36:32.463Z,3.12
2019-01-14T22:39:02.001Z,3.08
2019-01-14T22:41:31.672Z,3.12
2019-01-14T22:44:01.592Z,3.14
2019-01-14T22:46:31.261Z,3.10
2019-01-14T22:49:00.982Z,3.11
2019-01-14T22:51:30.931Z,3.05
2019-01-14T22:54:00.556Z,3.04
2019-01-14T22:56:30.266Z,3.05
2019-01-14T22:59:00.000Z,3.08
2019-01-14T23:01:41.104Z,3.09
2019-01-14T23:04:10.742Z,3.04
2019-01-14T23:06:40.429Z,3.01
2019-01-14T23:09:11.045Z,3.01
2019-01-14T23:11:40.712Z,2.94
2019-01-14T23:14:10.287Z,2.98
2019-01-14T23:16:39.908Z,2.96
2019-01-14T23:19:09.432Z,2.96
2019-01-14T23:21:39.085Z,2.98
2019-01-14T23:24:08.792Z,2.89
2019-01-14T23:26:38.363Z,2.90
2019-01-14T23:29:08.045Z,2.94
2019-01-14T23:31:37.847Z,2.90
2019-01-14T23:34:07.547Z,2.87
2019-01-14T23:36:37.114Z,2.86
2019-01-14T23:39:09.748Z,2.82
2019-01-14T23:41:39.436Z,2.88
2019-01-14T23:44:08.959Z,2.85
2019-01-14T23:46:38.705Z,2.88
2019-01-14T23:49:08.331Z,2.84
2019-01-14T23:51:38.017Z,2.83
2019-01-14T23:54:07.654Z,2.89
2019-01-14T23:56:37.278Z,1.85
2019-01-14T23:59:07.032Z,2.84
